createdAt,value
2019-05-15T00:01:08.507Z,1.30
2019-05-15T00:03:39.199Z,1.30
2019-05-15T00:06:09.824Z,1.30
2019-05-15T00:08:48.035Z,1.30
2019-05-15T00:11:19.360Z,1.40
2019-05-15T00:13:49.455Z,1.40
2019-05-15T00:16:19.539Z,1.40
2019-05-15T00:18:59.370Z,1.40
2019-05-15T00:21:31.444Z,1.40
2019-05-15T00:24:01.521Z,1.30
2019-05-15T00:26:32.601Z,1.30
2019-05-15T00:29:12.766Z,1.30
2019-05-15T00:31:34.472Z,1.10
2019-05-15T00:34:05.537Z,0.80
2019-05-15T00:36:49.102Z,0.70
2019-05-15T00:39:19.192Z,0.50
2019-05-15T00:41:54.436Z,0.50
2019-05-15T00:44:28.031Z,0.40
2019-05-15T00:47:01.301Z,0.20
2019-05-15T00:49:31.401Z,0.10
2019-05-15T00:52:03.441Z,0.10
2019-05-15T00:54:43.752Z,-0.10
2019-05-15T00:57:19.051Z,-0.20
2019-05-15T00:59:54.455Z,-0.30
2019-05-15T01:02:40.616Z,-0.40
2019-05-15T01:05:13.527Z,-0.40
2019-05-15T01:07:43.620Z,-0.40
2019-05-15T01:10:19.362Z,-0.40
2019-05-15T01:12:49.484Z,-0.30
2019-05-15T01:15:21.652Z,-0.10
2019-05-15T01:17:53.788Z,0.20
2019-05-15T01:20:25.028Z,0.60
2019-05-15T01:22:55.103Z,0.80
2019-05-15T01:25:30.920Z,0.80
2019-05-15T01:28:09.541Z,0.70
2019-05-15T01:30:39.693Z,0.70
2019-05-15T01:33:18.750Z,0.70
2019-05-15T01:35:49.550Z,0.80
2019-05-15T01:38:19.623Z,0.90
2019-05-15T01:41:01.985Z,1.00
2019-05-15T01:43:34.033Z,1.10
2019-05-15T01:46:11.341Z,1.20
2019-05-15T01:48:43.400Z,1.30
2019-05-15T01:51:13.464Z,1.30
2019-05-15T01:53:47.847Z,1.30
2019-05-15T01:56:19.386Z,1.30
2019-05-15T01:59:03.636Z,1.20
2019-05-15T02:01:33.775Z,1.00
2019-05-15T02:04:03.840Z,0.80
2019-05-15T02:06:34.894Z,0.60
2019-05-15T02:09:08.284Z,0.40
2019-05-15T02:11:38.563Z,0.20
2019-05-15T02:14:08.629Z,0.10
2019-05-15T02:16:40.688Z,0.10
2019-05-15T02:19:10.768Z,0.10
2019-05-15T02:21:40.845Z,0.20
2019-05-15T02:24:10.952Z,0.30
2019-05-15T02:26:41.028Z,0.30
2019-05-15T02:29:14.595Z,0.20
2019-05-15T02:31:43.873Z,0.00
2019-05-15T02:34:13.949Z,-0.20
2019-05-15T02:36:48.961Z,-0.30
2019-05-15T02:39:19.651Z,-0.40
2019-05-15T02:41:49.738Z,-0.40
2019-05-15T02:44:20.305Z,-0.50
2019-05-15T02:46:52.028Z,-0.60
2019-05-15T02:49:24.014Z,-0.60
2019-05-15T02:51:54.082Z,-0.60
2019-05-15T02:54:29.624Z,-0.50
2019-05-15T02:56:59.161Z,-0.50
2019-05-15T02:59:29.384Z,-0.50
2019-05-15T03:02:05.558Z,-0.60
2019-05-15T03:04:35.631Z,-0.60
2019-05-15T03:07:09.652Z,-0.70
2019-05-15T03:09:40.829Z,-0.70
2019-05-15T03:12:10.910Z,-0.70
2019-05-15T03:14:41.661Z,-0.70
2019-05-15T03:17:12.717Z,-0.70
2019-05-15T03:19:42.877Z,-0.70
2019-05-15T03:22:20.830Z,-0.70
2019-05-15T03:24:52.873Z,-0.70
2019-05-15T03:27:23.013Z,-0.80
2019-05-15T03:29:53.088Z,-0.70
2019-05-15T03:32:34.368Z,-0.70
2019-05-15T03:35:05.443Z,-0.60
2019-05-15T03:37:39.517Z,-0.60
2019-05-15T03:40:11.415Z,-0.60
2019-05-15T03:42:41.683Z,-0.60
2019-05-15T03:45:12.552Z,-0.40
2019-05-15T03:47:42.629Z,-0.40
2019-05-15T03:50:13.666Z,-0.30
2019-05-15T03:52:44.710Z,-0.30
2019-05-15T03:55:18.578Z,-0.40
2019-05-15T03:57:49.849Z,-0.40
2019-05-15T04:00:20.028Z,-0.30
2019-05-15T04:02:50.130Z,-0.10
2019-05-15T04:05:20.210Z,0.10
2019-05-15T04:07:50.292Z,0.20
2019-05-15T04:10:20.425Z,0.20
2019-05-15T04:12:52.505Z,0.30
2019-05-15T04:15:23.552Z,0.40
2019-05-15T04:18:00.589Z,0.30
2019-05-15T04:20:31.335Z,0.20
2019-05-15T04:23:10.232Z,0.10
2019-05-15T04:25:42.348Z,0.00
2019-05-15T04:28:15.192Z,0.00
2019-05-15T04:30:49.459Z,-0.10
2019-05-15T04:33:19.904Z,-0.20
2019-05-15T04:35:50.267Z,-0.20
2019-05-15T04:38:20.360Z,-0.20
2019-05-15T04:40:52.400Z,-0.20
2019-05-15T04:43:39.721Z,-0.10
2019-05-15T04:46:03.101Z,0.00
2019-05-15T04:48:50.154Z,0.10
2019-05-15T04:51:20.091Z,0.20
2019-05-15T04:53:58.771Z,0.40
2019-05-15T04:56:35.892Z,0.60
2019-05-15T04:59:10.443Z,0.70
2019-05-15T05:01:40.677Z,0.90
2019-05-15T05:04:11.844Z,1.00
2019-05-15T05:06:43.277Z,1.10
2019-05-15T05:09:13.446Z,1.20
2019-05-15T05:11:48.885Z,1.40
2019-05-15T05:14:19.350Z,1.60
2019-05-15T05:16:49.425Z,1.80
2019-05-15T05:19:28.728Z,1.90
2019-05-15T05:21:58.781Z,2.10
2019-05-15T05:24:30.852Z,2.30
2019-05-15T05:27:04.517Z,2.50
2019-05-15T05:30:01.660Z,2.70
2019-05-15T05:32:35.022Z,2.90
2019-05-15T05:35:08.488Z,3.00
2019-05-15T05:37:44.884Z,3.10
2019-05-15T05:40:18.813Z,3.20
2019-05-15T05:42:48.860Z,3.30
2019-05-15T05:45:19.192Z,3.40
2019-05-15T05:47:51.217Z,3.60
2019-05-15T05:50:44.393Z,3.70
2019-05-15T05:53:14.877Z,3.70
2019-05-15T05:55:52.995Z,3.90
2019-05-15T05:58:21.675Z,4.20
2019-05-15T06:01:04.766Z,4.40
2019-05-15T06:03:35.813Z,4.70
2019-05-15T06:06:09.427Z,4.80
2019-05-15T06:08:40.269Z,5.10
2019-05-15T06:11:11.326Z,5.40
2019-05-15T06:13:52.167Z,5.70
2019-05-15T06:16:22.238Z,5.70
2019-05-15T06:18:53.437Z,5.90
2019-05-15T06:21:33.373Z,6.10
2019-05-15T06:24:12.786Z,6.20
2019-05-15T06:26:49.074Z,6.30
2019-05-15T06:29:20.140Z,6.50
2019-05-15T06:31:50.209Z,6.70
2019-05-15T06:34:20.272Z,7.00
2019-05-15T06:36:50.350Z,7.30
2019-05-15T06:39:29.208Z,7.80
2019-05-15T06:42:00.265Z,8.30
2019-05-15T06:44:38.657Z,8.50
2019-05-15T06:47:08.781Z,8.80
2019-05-15T06:49:45.032Z,8.50
2019-05-15T06:52:23.204Z,8.20
2019-05-15T06:54:53.261Z,8.00
2019-05-15T06:57:25.792Z,8.00
2019-05-15T06:59:57.929Z,7.70
2019-05-15T07:02:38.135Z,7.70
2019-05-15T07:05:15.352Z,7.50
2019-05-15T07:07:51.400Z,7.80
2019-05-15T07:10:31.413Z,8.00
2019-05-15T07:13:05.637Z,7.80
2019-05-15T07:15:38.423Z,8.20
2019-05-15T07:18:08.849Z,8.40
2019-05-15T07:20:39.250Z,8.70
2019-05-15T07:23:10.229Z,9.10
2019-05-15T07:25:44.641Z,9.60
2019-05-15T07:28:14.851Z,9.80
2019-05-15T07:30:49.450Z,9.90
2019-05-15T07:33:35.886Z,10.30
2019-05-15T07:35:59.549Z,10.30
2019-05-15T07:38:29.670Z,10.60
2019-05-15T07:41:04.442Z,10.60
2019-05-15T07:43:33.445Z,10.40
2019-05-15T07:46:03.601Z,10.30
2019-05-15T07:48:33.680Z,10.70
2019-05-15T07:51:03.795Z,10.60
2019-05-15T07:53:33.975Z,10.90
2019-05-15T07:56:13.049Z,11.40
2019-05-15T07:58:44.177Z,11.70
2019-05-15T08:01:15.235Z,12.10
2019-05-15T08:03:56.602Z,11.90
2019-05-15T08:06:38.868Z,12.30
2019-05-15T08:09:23.181Z,12.50
2019-05-15T08:12:08.146Z,12.80
2019-05-15T08:14:38.968Z,13.70
2019-05-15T08:17:11.093Z,13.20
2019-05-15T08:19:48.880Z,12.80
2019-05-15T08:22:18.953Z,13.50
2019-05-15T08:24:49.100Z,13.70
2019-05-15T08:27:19.215Z,14.40
2019-05-15T08:29:49.295Z,14.80
2019-05-15T08:32:19.383Z,14.00
2019-05-15T08:34:49.473Z,14.50
2019-05-15T08:37:19.574Z,15.40
2019-05-15T08:39:49.677Z,15.30
2019-05-15T08:42:19.765Z,14.00
2019-05-15T08:44:51.737Z,13.30
2019-05-15T08:47:22.765Z,13.60
2019-05-15T08:49:58.621Z,13.60
2019-05-15T08:52:34.470Z,14.00
2019-05-15T08:55:09.345Z,14.30
2019-05-15T08:57:39.452Z,13.80
2019-05-15T09:00:11.161Z,13.60
2019-05-15T09:02:41.267Z,13.00
2019-05-15T09:05:12.743Z,12.50
2019-05-15T09:07:42.826Z,12.10
2019-05-15T09:10:13.289Z,12.10
2019-05-15T09:12:54.323Z,12.60
2019-05-15T09:15:25.277Z,13.30
2019-05-15T09:18:11.288Z,13.70
2019-05-15T09:20:29.321Z,13.90
2019-05-15T09:23:02.421Z,14.30
2019-05-15T09:25:32.537Z,14.60
2019-05-15T09:28:03.601Z,15.10
2019-05-15T09:30:33.709Z,15.20
2019-05-15T09:33:09.653Z,14.30
2019-05-15T09:35:39.753Z,14.60
2019-05-15T09:38:12.857Z,14.50
2019-05-15T09:40:46.481Z,14.80
2019-05-15T09:43:14.921Z,15.40
2019-05-15T09:45:45.009Z,15.50
2019-05-15T09:48:15.105Z,15.80
2019-05-15T09:50:45.213Z,16.10
2019-05-15T09:53:15.330Z,16.50
2019-05-15T09:55:45.425Z,16.60
2019-05-15T09:58:15.512Z,16.30
2019-05-15T10:00:51.339Z,16.20
2019-05-15T10:03:22.438Z,16.20
2019-05-15T10:05:56.289Z,16.80
2019-05-15T10:08:31.082Z,17.30
2019-05-15T10:11:02.216Z,17.20
2019-05-15T10:13:35.109Z,17.60
2019-05-15T10:16:08.398Z,18.10
2019-05-15T10:18:39.388Z,18.00
2019-05-15T10:21:09.581Z,18.30
2019-05-15T10:23:40.362Z,18.40
2019-05-15T10:26:13.803Z,18.70
2019-05-15T10:28:42.550Z,19.00
2019-05-15T10:31:14.554Z,19.90
2019-05-15T10:33:44.657Z,20.20
2019-05-15T10:36:15.769Z,20.20
2019-05-15T10:38:48.880Z,19.40
2019-05-15T10:41:18.970Z,17.70
2019-05-15T10:43:56.635Z,17.80
2019-05-15T10:46:23.038Z,18.10
2019-05-15T10:48:53.155Z,18.00
2019-05-15T10:51:23.238Z,18.60
2019-05-15T10:53:53.489Z,18.40
2019-05-15T10:56:24.545Z,18.80
2019-05-15T10:58:54.613Z,19.60
2019-05-15T11:01:25.697Z,19.20
2019-05-15T11:03:58.917Z,18.60
2019-05-15T11:06:28.943Z,19.10
2019-05-15T11:08:59.035Z,17.70
2019-05-15T11:11:29.125Z,17.90
2019-05-15T11:14:00.545Z,17.50
2019-05-15T11:16:30.721Z,16.30
2019-05-15T11:19:00.793Z,15.60
2019-05-15T11:21:30.874Z,14.90
2019-05-15T11:24:00.969Z,14.30
2019-05-15T11:26:33.630Z,14.30
2019-05-15T11:29:03.752Z,14.30
2019-05-15T11:31:33.866Z,14.40
2019-05-15T11:34:05.939Z,15.20
2019-05-15T11:36:38.641Z,15.60
2019-05-15T11:39:08.585Z,15.80
2019-05-15T11:41:38.901Z,15.20
2019-05-15T11:44:09.030Z,15.60
2019-05-15T11:46:39.368Z,15.70
2019-05-15T11:49:10.339Z,17.30
2019-05-15T11:51:40.449Z,18.30
2019-05-15T11:54:10.545Z,18.80
2019-05-15T11:57:00.155Z,21.00
2019-05-15T11:59:31.225Z,21.30
2019-05-15T12:02:01.321Z,22.80
2019-05-15T12:04:34.235Z,23.00
2019-05-15T12:07:03.250Z,24.00
2019-05-15T12:09:33.329Z,21.70
2019-05-15T12:12:03.410Z,22.20
2019-05-15T12:14:38.903Z,21.70
2019-05-15T12:17:14.987Z,22.10
2019-05-15T12:19:40.887Z,22.40
2019-05-15T12:22:16.761Z,23.80
2019-05-15T12:24:49.866Z,24.10
2019-05-15T12:27:18.714Z,24.70
2019-05-15T12:29:49.281Z,23.20
2019-05-15T12:32:30.066Z,20.70
2019-05-15T12:34:51.306Z,18.50
2019-05-15T12:37:22.331Z,17.80
2019-05-15T13:00:19.765Z,20.00
2019-05-15T13:02:50.853Z,20.10
2019-05-15T13:05:20.961Z,20.10
2019-05-15T13:07:52.037Z,19.80
2019-05-15T13:10:22.128Z,19.50
2019-05-15T13:13:04.944Z,18.80
2019-05-15T13:15:34.745Z,18.00
2019-05-15T13:18:14.636Z,16.90
2019-05-15T13:20:44.351Z,15.80
2019-05-15T13:23:14.426Z,14.90
2019-05-15T13:25:54.510Z,14.80
2019-05-15T13:28:29.046Z,14.40
2019-05-15T13:31:02.652Z,14.00
2019-05-15T13:33:32.769Z,13.80
2019-05-15T13:36:02.870Z,13.40
2019-05-15T13:38:32.965Z,13.10
2019-05-15T13:41:05.018Z,13.20
2019-05-15T13:43:38.502Z,13.50
2019-05-15T13:46:09.047Z,13.50
2019-05-15T13:48:39.109Z,13.50
2019-05-15T13:51:23.205Z,13.50
2019-05-15T13:53:53.710Z,13.40
2019-05-15T13:56:29.614Z,13.20
2019-05-15T13:59:16.832Z,13.20
2019-05-15T14:01:52.862Z,13.20
2019-05-15T14:04:22.962Z,12.90
2019-05-15T14:06:53.065Z,12.50
2019-05-15T14:09:23.142Z,12.20
2019-05-15T14:11:55.190Z,12.20
2019-05-15T14:14:34.630Z,12.00
2019-05-15T14:17:09.272Z,11.80
2019-05-15T14:19:39.143Z,11.50
2019-05-15T14:22:09.534Z,11.50
2019-05-15T14:24:50.165Z,11.20
2019-05-15T14:27:25.294Z,11.00
2019-05-15T14:29:58.152Z,11.00
2019-05-15T14:32:37.725Z,11.20
2019-05-15T14:35:01.024Z,11.10
2019-05-15T14:37:38.139Z,11.00
2019-05-15T14:40:10.457Z,10.90
2019-05-15T14:42:40.546Z,10.90
2019-05-15T14:45:19.959Z,10.60
2019-05-15T14:47:50.081Z,10.40
2019-05-15T14:50:21.621Z,10.40
2019-05-15T14:52:53.001Z,10.50
2019-05-15T14:55:23.097Z,10.70
2019-05-15T14:57:53.194Z,10.90
2019-05-15T15:00:28.614Z,10.80
2019-05-15T15:03:01.781Z,10.80
2019-05-15T15:05:38.755Z,10.90
2019-05-15T15:08:24.829Z,10.90
2019-05-15T15:10:52.870Z,10.80
2019-05-15T15:13:24.885Z,10.60
2019-05-15T15:15:54.989Z,10.30
2019-05-15T15:18:30.510Z,10.30
2019-05-15T15:21:00.621Z,10.10
2019-05-15T15:23:31.701Z,10.10
2019-05-15T15:26:01.814Z,10.20
2019-05-15T15:28:31.906Z,10.20
2019-05-15T15:31:02.139Z,10.20
2019-05-15T15:33:32.266Z,10.20
2019-05-15T15:36:02.395Z,10.10
2019-05-15T15:38:40.024Z,10.10
2019-05-15T15:41:04.282Z,10.00
2019-05-15T15:43:35.403Z,9.90
2019-05-15T15:46:05.549Z,9.80
2019-05-15T15:48:35.634Z,9.70
2019-05-15T15:51:05.813Z,9.60
2019-05-15T15:53:35.918Z,9.50
2019-05-15T15:56:10.340Z,9.40
2019-05-15T15:58:59.410Z,9.40
2019-05-15T16:01:31.349Z,9.40
2019-05-15T16:04:01.607Z,9.40
2019-05-15T16:06:31.673Z,9.30
2019-05-15T16:09:01.757Z,9.30
2019-05-15T16:11:31.830Z,9.30
2019-05-15T16:14:01.998Z,9.30
2019-05-15T16:16:35.106Z,9.30
2019-05-15T16:19:06.434Z,9.20
2019-05-15T16:21:39.352Z,9.20
2019-05-15T16:24:17.319Z,9.30
2019-05-15T16:26:41.307Z,9.30
2019-05-15T16:29:11.382Z,9.30
2019-05-15T16:31:42.625Z,9.30
2019-05-15T16:34:12.740Z,9.20
2019-05-15T16:36:43.744Z,9.10
2019-05-15T16:39:25.550Z,9.10
2019-05-15T16:41:55.622Z,9.10
2019-05-15T16:44:25.886Z,9.10
2019-05-15T16:46:56.002Z,9.10
2019-05-15T16:49:28.438Z,9.00
2019-05-15T16:51:59.798Z,8.90
2019-05-15T16:54:32.094Z,8.80
2019-05-15T16:57:04.258Z,8.80
2019-05-15T16:59:40.329Z,8.80
2019-05-15T17:02:13.602Z,8.80
2019-05-15T17:04:45.862Z,8.90
2019-05-15T17:07:21.341Z,8.90
2019-05-15T17:09:51.414Z,8.90
2019-05-15T17:12:22.530Z,8.90
2019-05-15T17:14:52.555Z,8.70
2019-05-15T17:17:27.266Z,8.60
2019-05-15T17:20:01.875Z,8.70
2019-05-15T17:22:32.919Z,8.50
2019-05-15T17:25:03.086Z,8.40
2019-05-15T17:27:35.610Z,8.30
2019-05-15T17:30:09.257Z,8.20
2019-05-15T17:32:41.135Z,8.20
2019-05-15T17:35:13.526Z,8.10
2019-05-15T17:37:52.188Z,8.10
2019-05-15T17:40:32.706Z,8.10
2019-05-15T17:43:02.855Z,8.10
2019-05-15T17:45:39.006Z,8.10
2019-05-15T17:48:12.317Z,8.10
2019-05-15T17:50:48.683Z,8.10
2019-05-15T17:53:15.130Z,8.10
2019-05-15T17:55:45.205Z,8.10
2019-05-15T17:58:19.285Z,8.10
2019-05-15T18:00:59.822Z,8.00
2019-05-15T18:03:33.898Z,8.00
2019-05-15T18:06:04.999Z,7.90
2019-05-15T18:08:35.066Z,7.90
2019-05-15T18:11:08.061Z,7.90
2019-05-15T18:13:38.351Z,7.90
2019-05-15T18:16:13.573Z,7.90
2019-05-15T18:18:43.130Z,7.80
2019-05-15T18:21:15.082Z,7.80
2019-05-15T18:23:48.665Z,7.80
2019-05-15T18:26:18.936Z,7.80
2019-05-15T18:28:49.135Z,7.80
2019-05-15T18:31:25.126Z,7.80
2019-05-15T18:33:58.714Z,7.70
2019-05-15T18:36:31.072Z,7.70
2019-05-15T18:39:08.652Z,7.70
2019-05-15T18:41:38.818Z,7.70
2019-05-15T18:44:08.898Z,7.70
2019-05-15T18:46:39.082Z,7.60
2019-05-15T18:49:09.378Z,7.60
2019-05-15T18:51:47.875Z,7.60
2019-05-15T18:54:19.690Z,7.50
2019-05-15T18:56:51.662Z,7.40
2019-05-15T18:59:21.751Z,7.40
2019-05-15T19:01:58.717Z,7.40
2019-05-15T19:04:28.956Z,7.40
2019-05-15T19:06:59.037Z,7.30
2019-05-15T19:09:31.041Z,7.30
2019-05-15T19:12:03.162Z,7.30
2019-05-15T19:14:39.524Z,7.30
2019-05-15T19:17:10.761Z,7.30
2019-05-15T19:19:40.834Z,7.30
2019-05-15T19:22:10.908Z,7.30
2019-05-15T19:24:41.009Z,7.20
2019-05-15T19:27:11.077Z,7.20
2019-05-15T19:29:41.169Z,7.20
2019-05-15T19:32:12.150Z,7.20
2019-05-15T19:37:11.841Z,7.20
2019-05-15T19:39:42.792Z,7.20
2019-05-15T19:42:18.768Z,7.20
2019-05-15T19:44:52.558Z,7.10
2019-05-15T19:47:23.622Z,7.10
2019-05-15T19:49:57.788Z,7.10
2019-05-15T19:52:28.834Z,7.10
2019-05-15T19:55:00.086Z,7.10
2019-05-15T19:57:30.171Z,7.10
2019-05-15T20:00:01.162Z,7.10
2019-05-15T20:02:31.262Z,7.10
2019-05-15T20:05:01.335Z,7.10
2019-05-15T20:07:39.019Z,7.10
2019-05-15T20:10:18.691Z,7.10
2019-05-15T20:12:50.819Z,7.10
2019-05-15T20:15:21.655Z,7.10
2019-05-15T20:17:51.871Z,7.10
2019-05-15T20:20:22.902Z,7.00
2019-05-15T20:22:53.095Z,7.00
2019-05-15T20:25:23.174Z,6.90
2019-05-15T20:27:54.126Z,6.80
2019-05-15T20:30:24.266Z,6.70
2019-05-15T20:32:54.335Z,6.60
2019-05-15T20:35:28.036Z,6.50
2019-05-15T20:37:58.369Z,6.50
2019-05-15T20:40:28.526Z,6.40
2019-05-15T20:43:04.699Z,6.40
2019-05-15T20:45:36.725Z,6.40
2019-05-15T20:48:11.758Z,6.30
2019-05-15T20:50:42.754Z,6.30
2019-05-15T20:53:12.810Z,6.30
2019-05-15T20:55:43.430Z,6.30
2019-05-15T20:58:13.514Z,6.30
2019-05-15T21:00:44.640Z,6.20
2019-05-15T21:03:14.730Z,6.20
2019-05-15T21:05:44.912Z,6.20
2019-05-15T21:08:14.982Z,6.20
2019-05-15T21:10:45.064Z,6.20
2019-05-15T21:13:21.350Z,6.20
2019-05-15T21:15:51.456Z,6.10
2019-05-15T21:18:24.065Z,6.10
2019-05-15T21:20:54.301Z,6.10
2019-05-15T21:23:25.723Z,6.10
2019-05-15T21:25:59.019Z,6.00
2019-05-15T21:28:30.066Z,5.90
2019-05-15T21:31:02.251Z,5.90
2019-05-15T21:33:35.764Z,5.90
2019-05-15T21:36:10.782Z,5.80
2019-05-15T21:38:40.886Z,5.80
2019-05-15T21:41:19.000Z,5.80
2019-05-15T21:43:50.593Z,5.70
2019-05-15T21:46:25.578Z,5.80
2019-05-15T21:48:57.733Z,5.80
2019-05-15T21:51:28.166Z,5.80
2019-05-15T21:54:13.040Z,5.80
2019-05-15T21:56:47.531Z,5.80
2019-05-15T21:59:20.750Z,5.80
2019-05-15T22:01:50.974Z,5.80
2019-05-15T22:04:22.598Z,5.90
2019-05-15T22:06:59.026Z,5.90
2019-05-15T22:09:38.152Z,5.90
2019-05-15T22:12:14.245Z,5.90
2019-05-15T22:14:44.458Z,5.90
2019-05-15T22:17:14.554Z,5.90
2019-05-15T22:19:49.291Z,5.90
2019-05-15T22:22:35.391Z,5.80
2019-05-15T22:25:11.266Z,5.90
2019-05-15T22:27:43.534Z,5.80
2019-05-15T22:30:18.555Z,5.80
2019-05-15T22:33:23.900Z,5.90
2019-05-15T22:36:33.538Z,5.90
2019-05-15T23:03:58.945Z,5.70
2019-05-15T23:06:29.019Z,5.80
2019-05-15T23:08:59.126Z,5.80
2019-05-15T23:11:29.952Z,5.80
2019-05-15T23:14:00.142Z,5.90
2019-05-15T23:16:30.206Z,5.90
2019-05-15T23:19:01.854Z,5.90
2019-05-15T23:21:40.353Z,5.90
2019-05-15T23:24:12.318Z,5.90
2019-05-15T23:26:48.019Z,6.00
2019-05-15T23:29:18.112Z,6.00
2019-05-15T23:31:50.150Z,6.10
2019-05-15T23:34:20.222Z,6.10
2019-05-15T23:36:50.294Z,6.10
2019-05-15T23:39:22.283Z,6.10
2019-05-15T23:41:52.359Z,6.10
2019-05-15T23:44:22.438Z,6.00
2019-05-15T23:46:52.506Z,6.00
2019-05-15T23:49:22.592Z,6.00
2019-05-15T23:51:52.686Z,6.00
2019-05-15T23:54:24.702Z,6.00
2019-05-15T23:56:54.816Z,6.00
2019-05-15T23:59:25.058Z,5.90
